createdAt,value
2023-05-16T00:00:28.239Z,75.05
2023-05-16T00:01:28.059Z,75.25
2023-05-16T00:02:28.250Z,75.25
2023-05-16T00:03:28.272Z,75.15
2023-05-16T00:04:28.172Z,75.05
2023-05-16T00:05:28.057Z,75.25
2023-05-16T00:06:28.067Z,74.95
2023-05-16T00:07:28.376Z,74.65
2023-05-16T00:08:28.050Z,74.98
2023-05-16T00:09:28.104Z,74.98
2023-05-16T00:10:28.237Z,75.29
2023-05-16T00:11:29.173Z,75.49
2023-05-16T00:12:27.954Z,75.29
2023-05-16T00:13:27.937Z,75.19
2023-05-16T00:14:28.001Z,75.59
2023-05-16T00:15:28.557Z,75.29
2023-05-16T00:16:28.808Z,76.40
2023-05-16T00:17:27.967Z,75.59
2023-05-16T00:18:27.921Z,75.79
2023-05-16T00:19:27.891Z,76.47
2023-05-16T00:20:28.389Z,76.47
2023-05-16T00:21:28.569Z,75.15
2023-05-16T00:22:28.044Z,75.05
2023-05-16T00:23:27.894Z,74.65
2023-05-16T00:24:27.901Z,75.59
2023-05-16T00:25:28.011Z,75.49
2023-05-16T00:26:27.889Z,75.39
2023-05-16T00:27:28.826Z,75.49
2023-05-16T00:28:27.803Z,75.39
2023-05-16T00:29:27.827Z,76.40
2023-05-16T00:30:28.284Z,76.10
2023-05-16T00:31:27.841Z,78.23
2023-05-16T00:32:27.805Z,76.10
2023-05-16T00:33:27.814Z,75.56
2023-05-16T00:34:28.168Z,75.66
2023-05-16T00:35:27.829Z,75.35
2023-05-16T00:36:27.785Z,74.95
2023-05-16T00:37:27.916Z,75.29
2023-05-16T00:38:27.730Z,75.39
2023-05-16T00:39:27.679Z,75.39
2023-05-16T00:40:27.822Z,75.70
2023-05-16T00:41:27.690Z,75.90
2023-05-16T00:42:27.744Z,76.71
2023-05-16T00:43:27.660Z,75.79
2023-05-16T00:44:27.637Z,76.00
2023-05-16T00:45:27.638Z,76.31
2023-05-16T00:46:27.716Z,76.10
2023-05-16T00:47:27.815Z,76.40
2023-05-16T00:48:27.798Z,76.10
2023-05-16T00:49:27.601Z,76.71
2023-05-16T00:50:27.812Z,76.10
2023-05-16T00:51:27.528Z,76.40
2023-05-16T00:52:27.553Z,77.22
2023-05-16T00:53:27.564Z,76.91
2023-05-16T00:54:27.546Z,77.12
2023-05-16T00:55:27.529Z,76.40
2023-05-16T00:56:27.533Z,76.20
2023-05-16T00:57:27.543Z,76.20
2023-05-16T00:58:27.550Z,76.61
2023-05-16T00:59:27.465Z,76.40
2023-05-16T01:00:27.992Z,76.40
2023-05-16T01:01:27.613Z,76.95
2023-05-16T01:02:27.585Z,76.24
2023-05-16T01:03:27.488Z,76.14
2023-05-16T01:04:27.428Z,77.36
2023-05-16T01:05:27.595Z,77.66
2023-05-16T01:06:27.554Z,76.20
2023-05-16T01:07:27.453Z,76.71
2023-05-16T01:08:27.538Z,76.61
2023-05-16T01:09:28.027Z,76.91
2023-05-16T01:10:27.376Z,76.51
2023-05-16T01:11:28.531Z,76.81
2023-05-16T01:12:27.337Z,75.79
2023-05-16T01:13:27.385Z,76.24
2023-05-16T01:14:27.508Z,76.03
2023-05-16T01:15:27.555Z,76.54
2023-05-16T01:16:27.674Z,76.64
2023-05-16T01:17:27.440Z,76.54
2023-05-16T01:18:27.339Z,77.76
2023-05-16T01:19:27.287Z,77.15
2023-05-16T01:20:27.869Z,76.85
2023-05-16T01:21:27.259Z,78.47
2023-05-16T01:22:27.233Z,77.45
2023-05-16T01:23:27.519Z,77.93
2023-05-16T01:24:27.277Z,76.71
2023-05-16T01:25:27.487Z,76.10
2023-05-16T01:26:27.182Z,76.34
2023-05-16T01:27:27.311Z,76.24
2023-05-16T01:28:27.238Z,76.54
2023-05-16T01:29:27.182Z,77.36
2023-05-16T01:30:27.309Z,76.95
2023-05-16T01:31:27.557Z,76.54
2023-05-16T01:32:27.452Z,77.25
2023-05-16T01:33:27.173Z,77.45
2023-05-16T01:34:27.138Z,77.90
2023-05-16T01:35:27.300Z,77.70
2023-05-16T01:36:27.104Z,77.80
2023-05-16T01:37:27.793Z,77.56
2023-05-16T01:38:27.143Z,77.56
2023-05-16T01:39:27.090Z,77.39
2023-05-16T01:40:27.126Z,76.98
2023-05-16T01:41:27.134Z,78.00
2023-05-16T01:42:27.505Z,78.00
2023-05-16T01:43:27.265Z,77.59
2023-05-16T01:44:27.398Z,78.04
2023-05-16T01:45:27.325Z,77.73
2023-05-16T01:46:27.138Z,77.53
2023-05-16T01:47:27.236Z,77.94
2023-05-16T01:48:26.988Z,77.94
2023-05-16T01:49:27.037Z,78.14
2023-05-16T01:50:27.229Z,79.46
2023-05-16T01:51:27.055Z,78.64
2023-05-16T01:52:27.024Z,78.24
2023-05-16T01:53:26.960Z,77.90
2023-05-16T01:54:27.997Z,77.19
2023-05-16T01:55:27.323Z,77.33
2023-05-16T01:56:26.981Z,77.33
2023-05-16T01:57:26.982Z,78.64
2023-05-16T01:58:26.890Z,79.36
2023-05-16T01:59:27.057Z,78.55
2023-05-16T02:00:26.928Z,79.05
2023-05-16T02:01:26.957Z,78.64
2023-05-16T02:02:26.840Z,79.77
2023-05-16T02:03:27.143Z,77.43
2023-05-16T02:04:26.817Z,77.73
2023-05-16T02:05:27.096Z,77.02
2023-05-16T02:06:26.824Z,77.53
2023-05-16T02:07:26.808Z,78.04
2023-05-16T02:08:28.503Z,78.14
2023-05-16T02:09:26.968Z,78.95
2023-05-16T02:10:26.892Z,78.04
2023-05-16T02:11:26.734Z,79.46
2023-05-16T02:12:26.761Z,78.55
2023-05-16T02:13:26.717Z,79.42
2023-05-16T02:14:26.725Z,77.59
2023-05-16T02:15:27.038Z,77.09
2023-05-16T02:16:26.824Z,77.83
2023-05-16T02:17:26.767Z,78.55
2023-05-16T02:18:26.643Z,79.77
2023-05-16T02:19:26.691Z,79.86
2023-05-16T02:20:26.617Z,78.34
2023-05-16T02:21:26.776Z,78.14
2023-05-16T02:22:26.656Z,78.24
2023-05-16T02:23:26.692Z,79.05
2023-05-16T02:24:26.654Z,79.16
2023-05-16T02:25:26.777Z,78.44
2023-05-16T02:26:26.605Z,78.34
2023-05-16T02:27:26.677Z,78.04
2023-05-16T02:28:26.592Z,79.36
2023-05-16T02:29:26.615Z,78.78
2023-05-16T02:30:26.785Z,78.38
2023-05-16T02:31:26.550Z,78.28
2023-05-16T02:32:27.494Z,78.38
2023-05-16T02:33:26.656Z,78.38
2023-05-16T02:34:26.505Z,78.78
2023-05-16T02:35:26.708Z,78.17
2023-05-16T02:36:26.806Z,79.80
2023-05-16T02:37:26.482Z,79.50
2023-05-16T02:38:26.532Z,79.16
2023-05-16T02:39:26.574Z,79.46
2023-05-16T02:40:26.501Z,78.34
2023-05-16T02:41:26.694Z,78.44
2023-05-16T02:42:26.595Z,77.77
2023-05-16T02:43:26.462Z,77.97
2023-05-16T02:44:26.516Z,78.31
2023-05-16T02:45:26.665Z,78.82
2023-05-16T02:46:26.800Z,79.13
2023-05-16T02:47:26.440Z,79.47
2023-05-16T02:48:26.403Z,80.38
2023-05-16T02:49:26.515Z,81.10
2023-05-16T02:50:27.223Z,79.63
2023-05-16T02:51:26.355Z,79.63
2023-05-16T02:52:26.324Z,79.63
2023-05-16T02:53:26.312Z,80.24
2023-05-16T02:54:26.313Z,79.94
2023-05-16T02:55:26.275Z,80.31
2023-05-16T02:56:26.288Z,79.19
2023-05-16T02:57:26.269Z,79.50
2023-05-16T02:58:26.473Z,80.31
2023-05-16T02:59:26.291Z,80.51
2023-05-16T03:00:26.221Z,79.50
2023-05-16T03:01:26.221Z,79.39
2023-05-16T03:02:26.508Z,79.36
2023-05-16T03:03:26.393Z,78.95
2023-05-16T03:04:27.988Z,79.16
2023-05-16T03:05:27.217Z,78.04
2023-05-16T03:06:26.211Z,77.77
2023-05-16T03:07:26.245Z,77.87
2023-05-16T03:08:26.274Z,78.28
2023-05-16T03:09:26.455Z,79.19
2023-05-16T03:10:26.365Z,78.28
2023-05-16T03:11:26.147Z,78.08
2023-05-16T03:12:26.360Z,79.19
2023-05-16T03:13:26.169Z,79.90
2023-05-16T03:14:26.062Z,79.70
2023-05-16T03:15:26.528Z,78.99
2023-05-16T03:16:26.101Z,79.60
2023-05-16T03:17:26.268Z,78.24
2023-05-16T03:18:26.091Z,78.95
2023-05-16T03:19:26.087Z,79.25
2023-05-16T03:20:26.040Z,78.95
2023-05-16T03:21:26.024Z,77.63
2023-05-16T03:22:26.073Z,79.36
2023-05-16T03:23:25.989Z,77.36
2023-05-16T03:24:26.074Z,77.77
2023-05-16T03:25:26.201Z,78.48
2023-05-16T03:26:26.353Z,79.09
2023-05-16T03:27:26.096Z,78.58
2023-05-16T03:28:26.045Z,79.09
2023-05-16T03:29:25.891Z,79.80
2023-05-16T03:30:25.866Z,81.53
2023-05-16T03:31:25.921Z,79.60
2023-05-16T03:32:26.122Z,80.62
2023-05-16T03:33:25.984Z,80.21
2023-05-16T03:34:25.825Z,78.08
2023-05-16T03:35:27.114Z,77.87
2023-05-16T03:36:25.879Z,78.31
2023-05-16T03:37:25.980Z,79.74
2023-05-16T03:38:25.981Z,78.92
2023-05-16T03:39:25.960Z,79.84
2023-05-16T03:40:26.056Z,79.33
2023-05-16T03:41:25.935Z,79.13
2023-05-16T03:42:25.777Z,78.82
2023-05-16T03:43:25.938Z,78.52
2023-05-16T03:44:26.586Z,78.82
2023-05-16T03:45:25.965Z,78.96
2023-05-16T03:46:25.952Z,79.77
2023-05-16T03:47:25.928Z,80.90
2023-05-16T03:48:25.836Z,79.53
2023-05-16T03:49:25.815Z,78.92
2023-05-16T03:50:26.532Z,79.02
2023-05-16T03:51:26.075Z,79.37
2023-05-16T03:52:25.696Z,79.68
2023-05-16T03:53:25.737Z,79.84
2023-05-16T03:54:25.676Z,79.33
2023-05-16T03:55:25.949Z,79.23
2023-05-16T03:56:25.816Z,78.92
2023-05-16T03:57:25.731Z,79.53
2023-05-16T03:58:25.618Z,79.74
2023-05-16T03:59:25.782Z,79.02
2023-05-16T04:00:25.654Z,78.62
2023-05-16T04:01:25.622Z,79.02
2023-05-16T04:02:26.047Z,79.33
2023-05-16T04:03:25.680Z,78.41
2023-05-16T04:04:25.811Z,78.01
2023-05-16T04:05:25.776Z,78.01
2023-05-16T04:06:25.727Z,78.41
2023-05-16T04:07:25.641Z,78.41
2023-05-16T04:08:25.774Z,78.11
2023-05-16T04:09:25.556Z,78.01
2023-05-16T04:10:25.562Z,78.21
2023-05-16T04:11:25.711Z,79.53
2023-05-16T04:12:25.475Z,78.72
2023-05-16T04:13:25.826Z,78.41
2023-05-16T04:14:25.455Z,77.60
2023-05-16T04:15:25.661Z,77.91
2023-05-16T04:16:26.244Z,78.11
2023-05-16T04:17:25.477Z,78.72
2023-05-16T04:18:25.479Z,78.82
2023-05-16T04:19:28.576Z,78.31
2023-05-16T04:20:25.449Z,78.52
2023-05-16T04:21:26.175Z,78.25
2023-05-16T04:22:25.448Z,79.98
2023-05-16T04:23:25.691Z,78.66
2023-05-16T04:24:25.566Z,78.45
2023-05-16T04:25:26.367Z,80.38
2023-05-16T04:26:25.757Z,80.49
2023-05-16T04:27:25.563Z,78.25
2023-05-16T04:28:25.366Z,78.86
2023-05-16T04:29:25.628Z,79.47
2023-05-16T04:30:25.341Z,79.77
2023-05-16T04:31:25.311Z,78.72
2023-05-16T04:32:25.962Z,79.23
2023-05-16T04:33:25.260Z,77.91
2023-05-16T04:34:25.356Z,78.01
2023-05-16T04:35:25.768Z,77.91
2023-05-16T04:36:28.988Z,78.15
2023-05-16T04:37:25.344Z,77.84
2023-05-16T04:38:25.202Z,78.66
2023-05-16T04:39:30.237Z,77.84
2023-05-16T04:40:25.211Z,80.08
2023-05-16T04:41:25.194Z,78.55
2023-05-16T04:42:25.301Z,77.94
2023-05-16T04:43:25.335Z,78.41
2023-05-16T04:44:25.128Z,77.50
2023-05-16T04:45:25.521Z,77.91
2023-05-16T04:46:25.291Z,78.52
2023-05-16T04:47:25.177Z,77.40
2023-05-16T04:48:25.349Z,76.68
2023-05-16T04:49:25.433Z,77.44
2023-05-16T04:50:25.197Z,77.29
2023-05-16T04:51:25.117Z,77.29
2023-05-16T04:52:25.068Z,76.42
2023-05-16T04:53:25.073Z,76.72
2023-05-16T04:54:25.029Z,77.03
2023-05-16T04:55:25.263Z,77.13
2023-05-16T04:56:26.603Z,76.92
2023-05-16T04:57:25.199Z,76.82
2023-05-16T04:58:25.290Z,77.64
2023-05-16T04:59:25.116Z,76.62
2023-05-16T05:00:26.344Z,78.31
2023-05-16T05:01:25.040Z,77.81
2023-05-16T05:02:25.470Z,76.28
2023-05-16T05:03:25.017Z,75.67
2023-05-16T05:04:25.041Z,76.59
2023-05-16T05:05:27.013Z,76.28
2023-05-16T05:06:25.005Z,75.91
2023-05-16T05:07:25.076Z,76.79
2023-05-16T05:08:25.843Z,76.59
2023-05-16T05:09:25.013Z,75.67
2023-05-16T05:10:25.044Z,74.96
2023-05-16T05:11:24.977Z,75.16
2023-05-16T05:12:24.990Z,74.76
2023-05-16T05:13:25.337Z,75.16
2023-05-16T05:14:25.089Z,74.55
2023-05-16T05:15:27.088Z,74.45
2023-05-16T05:16:25.080Z,74.96
2023-05-16T05:17:25.651Z,73.94
2023-05-16T05:18:25.308Z,74.18
2023-05-16T05:19:24.975Z,74.58
2023-05-16T05:20:25.348Z,75.30
2023-05-16T05:21:24.800Z,75.16
2023-05-16T05:22:25.451Z,74.04
2023-05-16T05:23:24.923Z,74.35
2023-05-16T05:24:24.918Z,74.15
2023-05-16T05:25:26.892Z,73.26
2023-05-16T05:26:24.854Z,73.67
2023-05-16T05:27:24.733Z,73.87
2023-05-16T05:28:24.753Z,74.28
2023-05-16T05:29:24.958Z,73.36
2023-05-16T05:30:25.419Z,73.57
2023-05-16T05:31:24.772Z,74.04
2023-05-16T05:32:25.220Z,73.33
2023-05-16T05:33:24.714Z,72.92
2023-05-16T05:34:24.760Z,72.78
2023-05-16T05:35:25.636Z,72.58
2023-05-16T05:36:24.724Z,72.28
2023-05-16T05:37:25.103Z,71.57
2023-05-16T05:38:25.552Z,71.47
2023-05-16T05:39:25.589Z,71.77
2023-05-16T05:40:24.632Z,72.69
2023-05-16T05:41:25.965Z,72.17
2023-05-16T05:42:25.335Z,72.11
2023-05-16T05:43:24.881Z,72.62
2023-05-16T05:44:24.555Z,72.62
2023-05-16T05:45:25.690Z,72.62
2023-05-16T05:46:25.054Z,72.52
2023-05-16T05:47:24.787Z,73.54
2023-05-16T05:48:24.846Z,72.72
2023-05-16T05:49:24.649Z,73.63
2023-05-16T05:50:24.639Z,73.13
2023-05-16T05:51:24.517Z,73.23
2023-05-16T05:52:24.707Z,72.52
2023-05-16T05:53:24.709Z,72.01
2023-05-16T05:54:24.740Z,73.02
2023-05-16T05:55:25.424Z,72.41
2023-05-16T05:56:24.744Z,72.82
2023-05-16T05:57:24.683Z,72.21
2023-05-16T05:58:24.488Z,72.52
2023-05-16T05:59:24.564Z,72.92
2023-05-16T06:00:24.501Z,72.72
2023-05-16T06:01:24.504Z,72.62
2023-05-16T06:02:25.155Z,72.86
2023-05-16T06:03:24.450Z,73.36
2023-05-16T06:04:25.114Z,72.62
2023-05-16T06:05:24.516Z,72.52
2023-05-16T06:06:32.398Z,72.72
2023-05-16T06:07:24.505Z,73.06
2023-05-16T06:08:24.377Z,73.06
2023-05-16T06:09:24.319Z,73.26
2023-05-16T06:10:24.377Z,73.06
2023-05-16T06:11:24.243Z,73.36
2023-05-16T06:12:24.250Z,73.67
2023-05-16T06:13:24.259Z,74.18
2023-05-16T06:14:24.219Z,73.97
2023-05-16T06:15:24.260Z,74.28
2023-05-16T06:16:24.320Z,75.13
2023-05-16T06:17:24.247Z,76.96
2023-05-16T06:18:24.443Z,75.60
2023-05-16T06:19:24.300Z,74.69
2023-05-16T06:20:24.194Z,75.64
2023-05-16T06:21:24.187Z,74.89
2023-05-16T06:22:25.040Z,75.84
2023-05-16T06:23:24.258Z,77.26
2023-05-16T06:24:24.124Z,76.52
2023-05-16T06:25:24.120Z,74.93
2023-05-16T06:26:24.241Z,75.33
2023-05-16T06:27:24.251Z,76.04
2023-05-16T06:28:24.176Z,76.72
2023-05-16T06:29:24.235Z,77.94
2023-05-16T06:30:24.049Z,76.62
2023-05-16T06:31:24.111Z,76.82
2023-05-16T06:32:24.068Z,76.11
2023-05-16T06:33:24.007Z,74.99
2023-05-16T06:34:24.039Z,76.31
2023-05-16T06:35:26.011Z,75.70
2023-05-16T06:36:23.994Z,76.04
2023-05-16T06:37:24.135Z,74.62
2023-05-16T06:38:24.068Z,76.49
2023-05-16T06:39:24.292Z,76.18
2023-05-16T06:40:24.032Z,77.71
2023-05-16T06:41:24.174Z,75.84
2023-05-16T06:42:24.120Z,76.76
2023-05-16T06:43:24.392Z,76.76
2023-05-16T06:44:24.123Z,76.25
2023-05-16T06:45:24.243Z,75.43
2023-05-16T06:46:24.046Z,74.11
2023-05-16T06:47:24.715Z,76.25
2023-05-16T06:48:24.117Z,74.45
2023-05-16T06:49:24.474Z,74.76
2023-05-16T06:50:23.964Z,74.86
2023-05-16T06:51:23.997Z,75.06
2023-05-16T06:52:24.087Z,76.28
2023-05-16T06:53:23.838Z,74.96
2023-05-16T06:54:23.809Z,74.55
2023-05-16T06:55:23.929Z,74.25
2023-05-16T06:56:24.018Z,74.65
2023-05-16T06:57:23.785Z,74.45
2023-05-16T06:58:23.819Z,74.76
2023-05-16T06:59:24.261Z,75.06
2023-05-16T07:00:23.745Z,76.59
2023-05-16T07:01:23.806Z,75.67
2023-05-16T07:02:23.800Z,76.59
2023-05-16T07:03:23.930Z,74.62
2023-05-16T07:04:23.675Z,74.41
2023-05-16T07:05:23.682Z,73.71
2023-05-16T07:06:23.813Z,73.60
2023-05-16T07:07:23.714Z,74.11
2023-05-16T07:08:23.669Z,74.11
2023-05-16T07:09:23.640Z,74.82
2023-05-16T07:10:23.706Z,74.11
2023-05-16T07:11:23.846Z,75.13
2023-05-16T07:12:23.750Z,73.26
2023-05-16T07:13:23.661Z,73.19
2023-05-16T07:14:23.625Z,73.50
2023-05-16T07:15:23.617Z,73.10
2023-05-16T07:16:23.679Z,73.80
2023-05-16T07:17:23.627Z,74.52
2023-05-16T07:18:23.576Z,73.50
2023-05-16T07:19:23.679Z,73.64
2023-05-16T07:20:23.553Z,73.02
2023-05-16T07:21:23.570Z,73.74
2023-05-16T07:22:23.507Z,73.94
2023-05-16T07:23:23.548Z,74.55
2023-05-16T07:24:23.491Z,74.86
2023-05-16T07:25:23.732Z,73.84
2023-05-16T07:26:23.545Z,74.55
2023-05-16T07:27:23.714Z,73.84
2023-05-16T07:28:23.706Z,73.94
2023-05-16T07:29:24.065Z,73.94
2023-05-16T07:30:23.618Z,73.23
2023-05-16T07:31:23.627Z,73.23
2023-05-16T07:32:23.524Z,73.54
2023-05-16T07:33:23.504Z,74.18
2023-05-16T07:34:23.496Z,74.58
2023-05-16T07:35:23.544Z,74.58
2023-05-16T07:36:23.389Z,74.38
2023-05-16T07:37:23.358Z,74.79
2023-05-16T07:38:23.441Z,75.10
2023-05-16T07:39:23.342Z,73.97
2023-05-16T07:40:23.318Z,74.62
2023-05-16T07:41:23.959Z,74.93
2023-05-16T07:42:23.413Z,75.13
2023-05-16T07:43:23.365Z,75.54
2023-05-16T07:44:23.320Z,75.13
2023-05-16T07:45:23.375Z,75.74
2023-05-16T07:46:23.442Z,75.23
2023-05-16T07:47:23.662Z,76.05
2023-05-16T07:48:23.373Z,75.30
2023-05-16T07:49:23.615Z,75.81
2023-05-16T07:50:23.287Z,74.58
2023-05-16T07:51:23.406Z,74.99
2023-05-16T07:52:23.368Z,74.58
2023-05-16T07:53:23.307Z,74.04
2023-05-16T07:54:23.293Z,74.18
2023-05-16T07:55:23.283Z,74.79
2023-05-16T07:56:23.269Z,75.23
2023-05-16T07:57:24.871Z,75.34
2023-05-16T07:58:23.196Z,75.85
2023-05-16T07:59:23.477Z,76.25
2023-05-16T08:00:23.399Z,77.68
2023-05-16T08:01:23.267Z,77.27
2023-05-16T08:02:23.335Z,76.73
2023-05-16T08:03:23.338Z,75.81
2023-05-16T08:04:23.185Z,76.42
2023-05-16T08:05:23.288Z,76.66
2023-05-16T08:06:23.411Z,76.87
2023-05-16T08:07:23.490Z,77.34
2023-05-16T08:08:23.193Z,77.78
2023-05-16T08:09:23.206Z,76.87
2023-05-16T08:10:23.337Z,77.98
2023-05-16T08:11:23.219Z,77.27
2023-05-16T08:12:23.215Z,76.46
2023-05-16T08:13:23.137Z,77.00
2023-05-16T08:14:23.124Z,77.31
2023-05-16T08:15:23.428Z,78.12
2023-05-16T08:16:23.488Z,78.12
2023-05-16T08:17:23.310Z,78.02
2023-05-16T08:18:23.199Z,78.27
2023-05-16T08:19:23.298Z,78.98
2023-05-16T08:20:23.517Z,79.90
2023-05-16T08:21:23.017Z,79.04
2023-05-16T08:22:23.251Z,79.86
2023-05-16T08:23:23.191Z,77.11
2023-05-16T08:24:23.311Z,79.35
2023-05-16T08:25:23.030Z,76.87
2023-05-16T08:26:22.947Z,77.17
2023-05-16T08:27:22.912Z,76.87
2023-05-16T08:28:23.085Z,75.74
2023-05-16T08:29:23.090Z,76.97
2023-05-16T08:30:22.894Z,77.37
2023-05-16T08:31:22.902Z,75.95
2023-05-16T08:32:22.850Z,76.97
2023-05-16T08:33:22.856Z,75.34
2023-05-16T08:34:22.939Z,76.15
2023-05-16T08:35:22.793Z,75.95
2023-05-16T08:36:22.783Z,74.62
2023-05-16T08:37:22.779Z,74.52
2023-05-16T08:38:22.788Z,75.13
2023-05-16T08:39:22.727Z,75.85
2023-05-16T08:40:22.812Z,75.30
2023-05-16T08:41:22.699Z,74.08
2023-05-16T08:42:22.700Z,73.06
2023-05-16T08:43:22.708Z,72.62
2023-05-16T08:44:22.696Z,73.16
2023-05-16T08:45:22.674Z,73.36
2023-05-16T08:46:22.766Z,72.75
2023-05-16T08:47:22.660Z,73.36
2023-05-16T08:48:22.714Z,73.40
2023-05-16T08:49:22.719Z,73.71
2023-05-16T08:50:22.713Z,73.97
2023-05-16T08:51:22.634Z,73.57
2023-05-16T08:52:22.638Z,74.18
2023-05-16T08:53:22.638Z,73.74
2023-05-16T08:54:22.716Z,73.33
2023-05-16T08:55:22.585Z,72.72
2023-05-16T08:56:23.113Z,73.54
2023-05-16T08:57:22.551Z,72.14
2023-05-16T08:58:22.566Z,73.36
2023-05-16T08:59:22.919Z,74.49
2023-05-16T09:00:22.686Z,76.22
2023-05-16T09:01:23.438Z,73.36
2023-05-16T09:02:22.551Z,72.96
2023-05-16T09:03:22.502Z,72.75
2023-05-16T09:04:22.525Z,71.73
2023-05-16T09:05:22.566Z,72.34
2023-05-16T09:06:22.577Z,71.84
2023-05-16T09:07:22.546Z,71.73
2023-05-16T09:08:22.460Z,72.04
2023-05-16T09:09:22.536Z,73.23
2023-05-16T09:10:22.453Z,72.82
2023-05-16T09:11:22.455Z,69.63
2023-05-16T09:12:22.403Z,69.43
2023-05-16T09:13:22.367Z,68.92
2023-05-16T09:14:22.664Z,68.85
2023-05-16T09:15:23.366Z,69.09
2023-05-16T09:16:22.515Z,70.41
2023-05-16T09:17:35.887Z,69.73
2023-05-16T09:18:22.650Z,72.65
2023-05-16T09:19:22.365Z,71.23
2023-05-16T09:20:22.373Z,70.65
2023-05-16T09:21:22.450Z,70.85
2023-05-16T09:22:22.339Z,71.97
2023-05-16T09:23:22.335Z,71.26
2023-05-16T09:24:22.285Z,71.56
2023-05-16T09:25:30.076Z,71.87
2023-05-16T09:26:22.327Z,70.82
2023-05-16T09:27:22.301Z,70.41
2023-05-16T09:28:22.253Z,70.24
2023-05-16T09:29:22.223Z,70.24
2023-05-16T09:30:22.265Z,71.56
2023-05-16T09:31:22.305Z,71.97
2023-05-16T09:32:22.290Z,70.78
2023-05-16T09:33:22.233Z,71.19
2023-05-16T09:34:22.176Z,71.50
2023-05-16T09:35:39.122Z,74.35
2023-05-16T09:36:22.278Z,72.00
2023-05-16T09:37:22.169Z,71.09
2023-05-16T09:38:22.234Z,71.09
2023-05-16T09:39:22.155Z,72.41
2023-05-16T09:40:22.155Z,72.00
2023-05-16T09:41:22.202Z,71.36
2023-05-16T09:42:22.188Z,70.54
2023-05-16T09:43:22.146Z,70.54
2023-05-16T09:44:22.080Z,71.06
2023-05-16T09:45:22.196Z,70.75
2023-05-16T09:46:22.233Z,70.65
2023-05-16T09:47:22.158Z,70.95
2023-05-16T09:48:22.156Z,71.46
2023-05-16T09:49:22.149Z,72.08
2023-05-16T09:50:22.087Z,70.75
2023-05-16T09:51:23.032Z,70.95
2023-05-16T09:52:22.491Z,69.93
2023-05-16T09:53:22.052Z,73.47
2023-05-16T09:54:22.303Z,70.92
2023-05-16T09:55:21.993Z,68.57
2023-05-16T09:56:22.067Z,68.78
2023-05-16T09:57:22.009Z,68.98
2023-05-16T09:58:21.928Z,68.88
2023-05-16T09:59:21.935Z,68.04
2023-05-16T10:00:21.936Z,67.02
2023-05-16T10:01:21.989Z,66.41
2023-05-16T10:02:22.084Z,66.71
2023-05-16T10:03:21.971Z,66.61
2023-05-16T10:04:21.952Z,66.94
2023-05-16T10:05:21.970Z,66.85
2023-05-16T10:06:21.879Z,66.44
2023-05-16T10:07:22.416Z,66.44
2023-05-16T10:08:21.929Z,66.47
2023-05-16T10:09:21.821Z,66.77
2023-05-16T10:10:21.844Z,68.17
2023-05-16T10:11:21.818Z,67.66
2023-05-16T10:12:21.777Z,66.61
2023-05-16T10:13:21.787Z,65.89
2023-05-16T10:14:21.785Z,67.73
2023-05-16T10:15:22.412Z,68.01
2023-05-16T10:16:21.804Z,64.75
2023-05-16T10:17:21.910Z,63.93
2023-05-16T10:18:21.751Z,63.01
2023-05-16T10:19:21.829Z,63.04
2023-05-16T10:20:21.925Z,63.56
2023-05-16T10:21:21.834Z,65.77
2023-05-16T10:22:21.709Z,63.53
2023-05-16T10:23:21.678Z,63.22
2023-05-16T10:24:21.750Z,62.30
2023-05-16T10:25:21.671Z,61.49
2023-05-16T10:26:21.730Z,61.59
2023-05-16T10:27:21.663Z,60.30
2023-05-16T10:28:21.632Z,60.91
2023-05-16T10:29:21.628Z,59.58
2023-05-16T10:30:21.625Z,59.07
2023-05-16T10:31:22.888Z,58.67
2023-05-16T10:32:21.724Z,58.46
2023-05-16T10:33:21.642Z,60.30
2023-05-16T10:34:21.657Z,60.09
2023-05-16T10:35:21.559Z,58.74
2023-05-16T10:36:21.589Z,58.53
2023-05-16T10:37:21.612Z,60.44
2023-05-16T10:38:21.661Z,60.03
2023-05-16T10:39:21.701Z,57.90
2023-05-16T10:40:21.594Z,57.49
2023-05-16T10:41:21.650Z,57.39
2023-05-16T10:42:21.542Z,58.44
2023-05-16T10:43:21.568Z,58.44
2023-05-16T10:44:21.521Z,58.71
2023-05-16T10:45:21.552Z,57.79
2023-05-16T10:46:21.609Z,56.70
2023-05-16T10:47:21.492Z,57.52
2023-05-16T10:48:21.539Z,57.85
2023-05-16T10:49:21.505Z,61.82
2023-05-16T10:50:21.492Z,59.55
2023-05-16T10:51:21.591Z,57.92
2023-05-16T10:52:21.411Z,59.83
2023-05-16T10:53:21.532Z,57.79
2023-05-16T10:54:21.436Z,57.69
2023-05-16T10:55:21.373Z,57.69
2023-05-16T10:56:21.327Z,60.03
2023-05-16T10:57:21.437Z,60.44
2023-05-16T10:58:21.368Z,60.11
2023-05-16T10:59:21.428Z,58.07
2023-05-16T11:00:21.364Z,57.67
2023-05-16T11:01:21.522Z,60.28
2023-05-16T11:02:21.390Z,57.74
2023-05-16T11:03:21.659Z,57.41
2023-05-16T11:04:22.389Z,56.39
2023-05-16T11:05:21.473Z,57.00
2023-05-16T11:06:23.610Z,56.60
2023-05-16T11:07:21.759Z,55.48
2023-05-16T11:08:22.564Z,57.10
2023-05-16T11:09:21.623Z,56.32
2023-05-16T11:10:22.212Z,56.62
2023-05-16T11:11:21.648Z,56.32
2023-05-16T11:12:21.393Z,56.21
2023-05-16T11:13:21.348Z,56.21
2023-05-16T11:14:21.354Z,55.81
2023-05-16T11:15:21.471Z,55.91
2023-05-16T11:16:21.891Z,55.71
2023-05-16T11:17:21.823Z,56.52
2023-05-16T11:18:21.474Z,56.21
2023-05-16T11:19:22.025Z,55.88
2023-05-16T11:20:21.204Z,56.09
2023-05-16T11:21:24.933Z,56.06
2023-05-16T11:22:21.433Z,55.45
2023-05-16T11:23:21.493Z,54.24
2023-05-16T11:24:21.702Z,52.89
2023-05-16T11:25:21.438Z,53.50
2023-05-16T11:26:21.285Z,53.19
2023-05-16T11:27:21.134Z,52.89
2023-05-16T11:28:21.720Z,52.58
2023-05-16T11:29:21.425Z,52.79
2023-05-16T11:30:21.376Z,52.89
2023-05-16T11:31:22.204Z,53.09
2023-05-16T11:32:21.257Z,53.39
2023-05-16T11:33:21.149Z,53.88
2023-05-16T11:34:21.593Z,53.47
2023-05-16T11:35:21.412Z,53.06
2023-05-16T11:36:21.106Z,52.84
2023-05-16T11:37:21.226Z,52.36
2023-05-16T11:38:21.049Z,52.73
2023-05-16T11:39:21.401Z,52.46
2023-05-16T11:40:22.376Z,51.14
2023-05-16T11:41:21.240Z,50.93
2023-05-16T11:42:21.090Z,54.05
2023-05-16T11:43:21.339Z,51.72
2023-05-16T11:44:21.019Z,50.99
2023-05-16T11:45:21.120Z,49.47
2023-05-16T11:46:21.264Z,49.87
2023-05-16T11:47:21.901Z,50.48
2023-05-16T11:48:28.782Z,50.18
2023-05-16T11:49:21.012Z,49.87
2023-05-16T11:50:21.269Z,50.05
2023-05-16T11:51:21.368Z,49.95
2023-05-16T11:52:22.382Z,49.62
2023-05-16T11:53:21.481Z,47.09
2023-05-16T11:54:21.639Z,47.60
2023-05-16T11:55:43.000Z,46.99
2023-05-16T11:56:21.345Z,47.58
2023-05-16T11:57:20.996Z,46.56
2023-05-16T11:58:21.023Z,46.46
2023-05-16T11:59:21.121Z,45.83
2023-05-16T12:00:20.850Z,46.04
2023-05-16T12:01:20.929Z,46.75
2023-05-16T12:02:20.767Z,44.82
2023-05-16T12:03:20.895Z,44.92
2023-05-16T12:04:21.297Z,45.12
2023-05-16T12:05:20.968Z,44.40
2023-05-16T12:06:20.806Z,44.70
2023-05-16T12:07:21.918Z,44.01
2023-05-16T12:08:31.598Z,44.12
2023-05-16T12:09:20.856Z,44.52
2023-05-16T12:10:22.896Z,44.42
2023-05-16T12:11:21.153Z,44.72
2023-05-16T12:12:20.796Z,44.42
2023-05-16T12:13:20.842Z,43.99
2023-05-16T12:14:21.150Z,44.52
2023-05-16T12:15:21.099Z,43.89
2023-05-16T12:16:21.770Z,42.27
2023-05-16T12:17:20.604Z,41.97
2023-05-16T12:18:20.748Z,42.15
2023-05-16T12:19:31.074Z,41.44
2023-05-16T12:20:20.966Z,40.94
2023-05-16T12:21:20.540Z,40.73
2023-05-16T12:22:21.030Z,41.55
2023-05-16T12:23:20.497Z,41.35
2023-05-16T12:24:21.532Z,41.44
2023-05-16T12:25:31.439Z,40.82
2023-05-16T12:26:20.824Z,39.61
2023-05-16T12:27:20.522Z,39.70
2023-05-16T12:28:22.669Z,40.01
2023-05-16T12:29:20.640Z,39.59
2023-05-16T12:30:21.704Z,40.30
2023-05-16T12:31:31.137Z,40.50
2023-05-16T12:32:23.102Z,40.61
2023-05-16T12:33:20.749Z,40.73
2023-05-16T12:34:20.883Z,41.36
2023-05-16T12:35:20.831Z,41.77
2023-05-16T12:36:20.624Z,42.37
2023-05-16T12:37:20.552Z,41.66
2023-05-16T12:38:20.566Z,41.16
2023-05-16T12:39:20.367Z,41.24
2023-05-16T12:40:21.076Z,41.04
2023-05-16T12:41:22.395Z,40.84
2023-05-16T12:42:21.328Z,40.82
2023-05-16T12:43:20.682Z,40.31
2023-05-16T12:44:20.295Z,39.91
2023-05-16T12:45:20.307Z,39.81
2023-05-16T12:46:20.334Z,39.61
2023-05-16T12:47:20.275Z,39.40
2023-05-16T12:48:20.275Z,38.11
2023-05-16T12:49:20.252Z,38.51
2023-05-16T12:50:20.235Z,39.02
2023-05-16T12:51:20.194Z,37.99
2023-05-16T12:52:20.325Z,38.21